Time;durP1;ratioP1;P1;durP2;ratioP2;P2;SDS_P1;SDS_P2;PMS_P1;PMS_P2;Temp;Humidity;BMP_temperature;BMP_pressure;BME280_temperature;BME280_humidity;BME280_pressure;Samples;Min_cycle;Max_cycle;Signal;HPM_P1;HPM_P2
2022/10/16 00:01:41;;;;;;;24.73;9.70;;;;;;;8.70;72.35;94556.44;5063971;28;20091;-79
2022/10/16 00:04:08;;;;;;;22.60;8.70;;;;;;;8.67;72.26;94567.66;5063668;28;20257;-79
2022/10/16 00:06:33;;;;;;;19.98;8.10;;;;;;;8.64;72.31;94565.56;5063671;28;20074;-79
2022/10/16 00:08:59;;;;;;;22.77;10.75;;;;;;;8.64;72.29;94569.00;5063555;28;20091;-79
2022/10/16 00:11:28;;;;;;;22.45;10.60;;;;;;;8.62;72.43;94571.16;5063602;28;20029;-79
2022/10/16 00:13:57;;;;;;;22.65;8.82;;;;;;;8.59;72.28;94569.06;5063658;28;20031;-79
2022/10/16 00:16:23;;;;;;;21.40;9.40;;;;;;;8.59;72.53;94577.03;5063524;28;20027;-79
2022/10/16 00:18:48;;;;;;;22.90;8.93;;;;;;;8.58;72.30;94572.78;5063228;28;20017;-79
2022/10/16 00:21:17;;;;;;;16.33;7.68;;;;;;;8.54;72.46;94563.81;5061540;28;20103;-79
2022/10/16 00:23:43;;;;;;;13.30;7.05;;;;;;;8.52;73.16;94562.50;5063400;28;20041;-79
2022/10/16 00:26:12;;;;;;;14.23;6.70;;;;;;;8.52;73.25;94575.78;5063286;28;20307;-79
2022/10/16 00:28:38;;;;;;;14.90;7.07;;;;;;;8.50;73.25;94578.72;5063408;28;20032;-79
2022/10/16 00:31:06;;;;;;;15.75;6.20;;;;;;;8.47;73.24;94579.31;5063305;28;20337;-79
2022/10/16 00:33:31;;;;;;;12.38;6.55;;;;;;;8.42;73.21;94582.78;5063038;28;20063;-79
2022/10/16 00:36:02;;;;;;;13.30;5.75;;;;;;;8.42;73.56;94593.41;5062007;28;20025;-79
2022/10/16 00:38:27;;;;;;;12.98;6.50;;;;;;;8.38;73.49;94575.63;5063083;28;20219;-79
2022/10/16 00:40:53;;;;;;;9.00;5.53;;;;;;;8.37;73.50;94584.69;5063068;28;20028;-79
2022/10/16 00:43:41;;;;;;;11.48;6.07;;;;;;;8.32;74.06;94587.38;5062026;28;20048;-78
2022/10/16 00:46:40;;;;;;;13.68;7.07;;;;;;;8.28;73.77;94589.00;5062883;28;20238;-79
2022/10/16 00:49:14;;;;;;;12.73;6.50;;;;;;;8.27;73.76;94579.47;5061198;28;20040;-79
2022/10/16 00:51:46;;;;;;;12.75;6.75;;;;;;;8.26;73.55;94577.88;5063104;28;20020;-79
2022/10/16 00:54:14;;;;;;;;;;;;;;;8.22;73.63;94581.09;5063522;28;20025;-79
2022/10/16 00:56:40;;;;;;;23.13;6.95;;;;;;;8.14;73.86;94578.25;5062788;28;19905;-79
2022/10/16 00:59:13;;;;;;;13.50;6.32;;;;;;;8.13;73.92;94576.69;5062700;28;20231;-79
2022/10/16 01:01:39;;;;;;;15.20;6.00;;;;;;;8.12;73.69;94581.19;5062912;28;20016;-79
2022/10/16 01:04:04;;;;;;;14.13;5.97;;;;;;;8.11;73.82;94587.56;5062647;28;20113;-79
2022/10/16 01:06:56;;;;;;;15.15;7.30;;;;;;;8.06;74.10;94590.28;5062683;28;20025;-79
2022/10/16 01:09:35;;;;;;;11.47;6.53;;;;;;;8.02;74.06;94584.72;5062460;28;20021;-79
2022/10/16 01:12:04;;;;;;;15.05;6.57;;;;;;;8.00;74.08;94580.78;5062580;28;20255;-79
2022/10/16 01:14:47;;;;;;;21.42;8.75;;;;;;;8.00;74.00;94583.44;5062515;28;20021;-79
2022/10/16 01:17:22;;;;;;;11.88;5.80;;;;;;;7.99;74.06;94579.97;5062734;28;20020;-79
2022/10/16 01:20:05;;;;;;;15.18;7.05;;;;;;;7.95;74.11;94576.28;5062507;28;20278;-79
2022/10/16 01:22:48;;;;;;;12.77;6.90;;;;;;;7.96;74.09;94580.53;5062394;28;20028;-79
2022/10/16 01:25:30;;;;;;;9.80;5.13;;;;;;;7.93;74.29;94580.28;5062379;28;20061;-79
2022/10/16 01:27:57;;;;;;;10.65;5.40;;;;;;;7.89;74.33;94573.97;5062414;28;20036;-79
2022/10/16 01:30:28;;;;;;;9.38;5.50;;;;;;;7.91;74.39;94567.28;5062289;28;20394;-79
2022/10/16 01:33:05;;;;;;;8.68;5.10;;;;;;;7.92;74.09;94565.44;5068964;28;20096;-79
2022/10/16 01:35:45;;;;;;;10.18;5.22;;;;;;;7.89;73.86;94563.34;5068941;28;20035;-79
2022/10/16 01:38:33;;;;;;;11.07;5.38;;;;;;;7.90;73.83;94565.72;5069214;28;20044;-80
2022/10/16 01:41:11;;;;;;;10.38;4.82;;;;;;;7.89;73.55;94566.78;5068875;28;20021;-79
2022/10/16 01:43:42;;;;;;;7.97;4.30;;;;;;;7.84;73.75;94566.84;5068978;28;20021;-79
2022/10/16 01:46:09;;;;;;;7.15;4.25;;;;;;;7.88;73.88;94569.72;5069086;28;20063;-79
2022/10/16 01:48:36;;;;;;;12.30;5.40;;;;;;;7.87;73.66;94576.09;5068824;28;20040;-79
2022/10/16 01:51:08;;;;;;;10.68;5.93;;;;;;;7.84;73.73;94572.16;5068765;28;20029;-79
2022/10/16 01:53:34;;;;;;;11.25;5.95;;;;;;;7.80;73.79;94582.50;5068911;28;20052;-79
2022/10/16 01:56:02;;;;;;;10.02;5.28;;;;;;;7.82;74.02;94590.22;5068910;28;20083;-79
2022/10/16 01:58:30;;;;;;;10.50;5.72;;;;;;;7.82;73.95;94577.72;5068669;28;20013;-79
2022/10/16 02:00:56;;;;;;;8.77;5.05;;;;;;;7.79;74.09;94578.25;5068845;28;20092;-79
2022/10/16 02:03:21;;;;;;;8.93;4.60;;;;;;;7.80;74.08;94587.03;5068779;28;20027;-79
2022/10/16 02:05:53;;;;;;;9.73;5.63;;;;;;;7.77;74.37;94593.66;5068676;28;20020;-79
2022/10/16 02:08:19;;;;;;;10.75;5.63;;;;;;;7.76;74.42;94586.00;5068568;28;20036;-79
2022/10/16 02:10:45;;;;;;;10.75;4.95;;;;;;;7.74;74.68;94588.94;5068771;28;20223;-79
2022/10/16 02:13:20;;;;;;;14.38;5.78;;;;;;;7.73;74.73;94595.28;5068774;28;20021;-79
2022/10/16 02:15:46;;;;;;;12.38;5.68;;;;;;;7.76;74.79;94597.41;5068719;28;20020;-79
2022/10/16 02:18:11;;;;;;;8.32;5.03;;;;;;;7.76;74.54;94596.63;5068671;28;20028;-79
2022/10/16 02:20:58;;;;;;;11.63;5.03;;;;;;;7.73;74.50;94613.88;5068425;28;20024;-79
2022/10/16 02:23:35;;;;;;;10.00;5.50;;;;;;;7.69;74.63;94612.84;5068595;28;20234;-79
2022/10/16 02:26:05;;;;;;;9.45;5.30;;;;;;;7.69;75.01;94617.34;5068713;28;20316;-79
2022/10/16 02:28:55;;;;;;;10.95;5.63;;;;;;;7.67;75.77;94614.19;5068518;28;20028;-79
2022/10/16 02:31:27;;;;;;;12.18;6.18;;;;;;;7.66;76.15;94624.00;5068390;28;20029;-79
2022/10/16 02:33:58;;;;;;;13.02;5.57;;;;;;;7.66;76.29;94623.22;5068656;28;20029;-79
2022/10/16 02:36:23;;;;;;;10.05;5.53;;;;;;;7.62;75.98;94613.16;5068422;28;20036;-79
2022/10/16 02:38:49;;;;;;;12.63;6.55;;;;;;;7.64;75.78;94615.53;5068462;28;20021;-79
2022/10/16 02:41:15;;;;;;;11.95;6.13;;;;;;;7.66;75.27;94607.31;5068497;28;20017;-79
2022/10/16 02:43:40;;;;;;;11.10;6.68;;;;;;;7.66;75.52;94613.41;5065438;28;20017;-79
2022/10/16 02:46:05;;;;;;;14.25;6.93;;;;;;;7.66;75.53;94618.72;5065341;28;20037;-79
2022/10/16 02:48:31;;;;;;;13.38;6.53;;;;;;;7.64;75.84;94613.66;5065190;28;20223;-79
2022/10/16 02:50:57;;;;;;;15.68;8.98;;;;;;;7.63;75.78;94619.25;5065060;28;20273;-79
2022/10/16 02:53:22;;;;;;;13.88;7.88;;;;;;;7.59;76.22;94618.22;5065185;28;20025;-79
2022/10/16 02:55:48;;;;;;;14.20;8.13;;;;;;;7.55;76.88;94628.59;5065098;28;20036;-79
2022/10/16 02:58:13;;;;;;;16.48;8.68;;;;;;;7.52;77.03;94631.00;5064846;28;20020;-79
2022/10/16 03:00:39;;;;;;;15.70;9.27;;;;;;;7.50;77.41;94630.47;5065008;28;20039;-79
2022/10/16 03:03:04;;;;;;;13.25;8.20;;;;;;;7.50;77.19;94636.56;5065058;28;20028;-79
2022/10/16 03:05:30;;;;;;;19.73;9.18;;;;;;;7.50;76.80;94627.84;5064814;28;20025;-79
2022/10/16 03:07:55;;;;;;;20.13;9.95;;;;;;;7.52;76.84;94638.97;5064539;28;20036;-79
2022/10/16 03:10:21;;;;;;;13.88;9.13;;;;;;;7.48;76.89;94636.06;5064623;28;20013;-79
2022/10/16 03:12:46;;;;;;;15.23;8.88;;;;;;;7.49;76.66;94639.50;5064837;28;20044;-79
2022/10/16 03:15:12;;;;;;;15.43;8.98;;;;;;;7.51;76.90;94645.31;5064790;28;20208;-79
2022/10/16 03:17:37;;;;;;;14.32;9.23;;;;;;;7.50;76.79;94641.09;5064877;28;20020;-79
2022/10/16 03:20:03;;;;;;;14.05;8.50;;;;;;;7.49;76.53;94642.97;5064528;28;20285;-79
2022/10/16 03:22:28;;;;;;;16.27;8.45;;;;;;;7.49;76.34;94636.84;5064535;28;20041;-79
2022/10/16 03:24:54;;;;;;;18.55;9.73;;;;;;;7.49;76.01;94652.75;5064366;28;20033;-79
2022/10/16 03:27:19;;;;;;;14.75;8.43;;;;;;;7.46;75.88;94653.31;5064585;28;20073;-79
2022/10/16 03:29:45;;;;;;;16.55;9.90;;;;;;;7.39;75.74;94650.97;5064262;28;20048;-79
2022/10/16 03:32:10;;;;;;;25.02;10.48;;;;;;;7.35;75.35;94650.72;5064695;28;20017;-79
2022/10/16 03:34:36;;;;;;;14.77;9.43;;;;;;;7.32;75.18;94640.66;5064286;28;20149;-79
2022/10/16 03:37:01;;;;;;;14.70;8.77;;;;;;;7.30;75.12;94657.91;5064280;28;20023;-79
2022/10/16 03:39:27;;;;;;;26.45;10.60;;;;;;;7.26;75.36;94654.22;5064346;28;20020;-79
2022/10/16 03:41:52;;;;;;;18.13;10.38;;;;;;;7.20;75.31;94654.22;5064203;28;20311;-79
2022/10/16 03:44:18;;;;;;;16.70;10.10;;;;;;;7.17;75.31;94649.47;5064219;28;20043;-79
2022/10/16 03:46:43;;;;;;;17.58;9.23;;;;;;;7.13;75.19;94642.34;5064174;28;20025;-79
2022/10/16 03:49:09;;;;;;;20.55;8.55;;;;;;;7.11;75.60;94645.25;5064202;28;20060;-79
2022/10/16 03:51:34;;;;;;;17.38;9.57;;;;;;;7.08;75.57;94645.78;5064099;28;20036;-79
2022/10/16 03:53:59;;;;;;;15.07;8.63;;;;;;;7.03;75.77;94649.25;5063556;28;20028;-79
2022/10/16 03:56:25;;;;;;;22.42;10.43;;;;;;;7.01;75.56;94640.78;5063276;28;20035;-79
2022/10/16 03:58:50;;;;;;;21.00;11.35;;;;;;;6.95;75.71;94633.91;5063888;28;20017;-79
2022/10/16 04:01:16;;;;;;;18.38;10.95;;;;;;;6.94;75.82;94634.19;5063733;28;20166;-79
2022/10/16 04:03:41;;;;;;;20.35;10.98;;;;;;;6.94;75.77;94637.63;5063914;28;20030;-79
2022/10/16 04:06:07;;;;;;;21.70;10.35;;;;;;;6.91;75.90;94640.81;5063642;28;20024;-79
2022/10/16 04:08:34;;;;;;;21.77;11.00;;;;;;;6.90;76.00;94633.94;5063417;28;20029;-79
2022/10/16 04:11:01;;;;;;;21.95;10.02;;;;;;;6.89;76.16;94637.66;5063924;28;20035;-79
2022/10/16 04:13:26;;;;;;;16.25;10.73;;;;;;;6.87;76.27;94639.78;5063575;28;20267;-79
2022/10/16 04:15:52;;;;;;;18.13;10.23;;;;;;;6.87;75.83;94639.78;5063464;28;20021;-79
2022/10/16 04:18:17;;;;;;;20.25;11.82;;;;;;;6.91;75.92;94643.47;5063702;28;20025;-79
2022/10/16 04:20:42;;;;;;;24.45;12.70;;;;;;;6.89;75.99;94639.50;5063663;28;20211;-79
2022/10/16 04:23:08;;;;;;;25.38;11.18;;;;;;;6.87;75.79;94642.41;5063276;28;20024;-79
2022/10/16 04:25:33;;;;;;;16.88;10.63;;;;;;;6.82;75.77;94640.59;5063152;28;20036;-79
2022/10/16 04:27:59;;;;;;;23.38;11.43;;;;;;;6.81;76.48;94644.28;5063315;28;20025;-79
2022/10/16 04:30:24;;;;;;;18.67;11.38;;;;;;;6.82;76.96;94643.25;5063334;28;20021;-79
2022/10/16 04:32:51;;;;;;;22.27;11.75;;;;;;;6.82;76.69;94653.06;5061950;28;20215;-78
2022/10/16 04:35:17;;;;;;;22.05;10.75;;;;;;;6.81;77.00;94651.44;5063371;28;20154;-79
2022/10/16 04:37:43;;;;;;;20.00;11.07;;;;;;;6.84;77.17;94661.53;5063065;28;20016;-79
2022/10/16 04:40:09;;;;;;;20.38;11.52;;;;;;;6.81;76.75;94662.84;5063145;28;20175;-79
2022/10/16 04:42:34;;;;;;;24.73;11.65;;;;;;;6.81;76.13;94654.09;5063121;28;20192;-79
2022/10/16 04:45:00;;;;;;;23.80;12.13;;;;;;;6.79;76.16;94661.53;5063096;28;20378;-79
2022/10/16 04:47:25;;;;;;;22.15;12.68;;;;;;;6.78;75.95;94660.75;5062767;28;20055;-79
2022/10/16 04:49:50;;;;;;;25.48;11.90;;;;;;;6.76;75.89;94665.50;5063071;28;20025;-79
2022/10/16 04:52:17;;;;;;;22.02;13.32;;;;;;;6.76;75.87;94665.50;5062835;28;20044;-79
2022/10/16 04:54:44;;;;;;;21.50;12.52;;;;;;;6.77;75.85;94671.59;5061713;28;20024;-79
2022/10/16 04:57:10;;;;;;;24.70;13.40;;;;;;;6.79;75.73;94677.41;5062984;28;20025;-79
2022/10/16 04:59:35;;;;;;;25.20;12.50;;;;;;;6.77;75.63;94677.69;5062781;28;20347;-79
2022/10/16 05:02:01;;;;;;;37.80;12.95;;;;;;;6.80;76.11;94681.69;5062626;28;20102;-79
2022/10/16 05:04:27;;;;;;;27.33;12.82;;;;;;;6.82;76.39;94684.84;5062766;28;20021;-79
2022/10/16 05:06:52;;;;;;;20.52;11.13;;;;;;;6.83;76.45;94686.41;5062358;28;20031;-79
2022/10/16 05:09:17;;;;;;;24.70;12.15;;;;;;;6.85;76.59;94691.47;5062435;28;20025;-79
2022/10/16 05:11:43;;;;;;;18.90;12.07;;;;;;;6.87;76.37;94687.47;5062715;28;20049;-79
2022/10/16 05:14:08;;;;;;;22.13;12.10;;;;;;;6.89;76.19;94688.00;5062657;28;20027;-78
2022/10/16 05:16:34;;;;;;;21.00;11.88;;;;;;;6.93;76.11;94694.34;5062601;28;20024;-79
2022/10/16 05:18:59;;;;;;;22.73;12.30;;;;;;;6.94;76.69;94695.94;5061241;28;20056;-79
2022/10/16 05:21:25;;;;;;;18.60;11.57;;;;;;;6.97;76.50;94692.75;5062501;28;20151;-79
2022/10/16 05:23:50;;;;;;;19.02;11.30;;;;;;;7.02;76.96;94698.03;5062237;28;20040;-79
2022/10/16 05:26:16;;;;;;;23.67;12.30;;;;;;;7.08;76.98;94698.81;5062326;28;20017;-79
2022/10/16 05:28:41;;;;;;;19.80;11.40;;;;;;;7.15;76.86;94693.22;5062281;28;20280;-79
2022/10/16 05:31:08;;;;;;;19.25;10.82;;;;;;;7.23;76.76;94695.31;5062490;28;20027;-79
2022/10/16 05:33:34;;;;;;;24.40;11.90;;;;;;;7.26;76.50;94696.63;5062323;28;20029;-79
2022/10/16 05:36:04;;;;;;;24.65;11.23;;;;;;;7.33;76.46;94699.81;5062378;28;20017;-79
2022/10/16 05:38:29;;;;;;;20.33;10.43;;;;;;;7.37;76.43;94696.31;5062359;28;20315;-79
2022/10/16 05:40:56;;;;;;;19.13;10.30;;;;;;;7.43;76.71;94702.41;5062081;28;20058;-79
2022/10/16 05:43:21;;;;;;;17.63;10.18;;;;;;;7.46;76.75;94704.50;5062099;28;20020;-79
2022/10/16 05:46:02;;;;;;;20.52;10.52;;;;;;;7.54;76.76;94703.94;5062386;28;20040;-79
2022/10/16 05:48:28;;;;;;;23.83;9.98;;;;;;;7.59;76.75;94709.22;5062112;28;20346;-79
2022/10/16 05:51:02;;;;;;;20.23;10.40;;;;;;;7.63;77.10;94712.09;5062054;28;20028;-79
2022/10/16 05:53:29;;;;;;;21.08;10.48;;;;;;;7.67;76.92;94718.44;5062045;28;20334;-79
2022/10/16 05:55:55;;;;;;;15.10;9.30;;;;;;;7.70;76.95;94712.63;5061023;28;20055;-79
2022/10/16 05:58:22;;;;;;;20.48;10.18;;;;;;;7.64;77.09;94713.72;5062110;28;20021;-79
2022/10/16 06:00:59;;;;;;;20.67;11.00;;;;;;;7.73;76.94;94720.00;5061874;28;20029;-79
2022/10/16 06:03:24;;;;;;;20.05;10.10;;;;;;;7.80;76.84;94725.03;5062093;28;20048;-79
2022/10/16 06:05:50;;;;;;;21.08;10.43;;;;;;;7.82;76.82;94731.66;5062115;28;20029;-79
2022/10/16 06:08:16;;;;;;;19.65;10.95;;;;;;;7.88;76.77;94736.94;5061873;28;20254;-79
2022/10/16 06:10:42;;;;;;;16.15;10.43;;;;;;;7.85;76.59;94740.94;5062141;28;20025;-79
2022/10/16 06:13:07;;;;;;;18.40;10.90;;;;;;;7.89;76.88;94743.84;5061761;28;20345;-79
2022/10/16 06:15:33;;;;;;;19.88;11.57;;;;;;;7.91;76.79;94741.69;5061749;28;20444;-79
2022/10/16 06:17:58;;;;;;;19.20;11.60;;;;;;;7.99;76.68;94744.56;5062380;28;20373;-79
2022/10/16 06:20:23;;;;;;;22.23;11.73;;;;;;;8.07;76.28;94745.84;5065840;28;20028;-79
2022/10/16 06:22:49;;;;;;;24.23;12.50;;;;;;;8.11;76.28;94748.75;5065649;28;20287;-79
2022/10/16 06:25:14;;;;;;;25.58;11.88;;;;;;;8.20;76.08;94749.75;5065398;28;20037;-79
2022/10/16 06:27:40;;;;;;;23.60;12.23;;;;;;;8.30;76.00;94754.19;5065557;28;20021;-79
2022/10/16 06:30:07;;;;;;;24.00;13.20;;;;;;;8.38;75.54;94756.25;5065349;28;20091;-79
2022/10/16 06:32:32;;;;;;;21.98;12.23;;;;;;;8.42;75.58;94758.13;5065221;28;20265;-79
2022/10/16 06:34:58;;;;;;;25.55;12.57;;;;;;;8.48;75.01;94753.56;5065187;28;20013;-79
2022/10/16 06:37:24;;;;;;;22.23;11.77;;;;;;;8.55;74.80;94763.91;5065331;28;20214;-79
2022/10/16 06:39:52;;;;;;;20.95;12.80;;;;;;;8.61;74.94;94763.56;5065424;28;20040;-79
2022/10/16 06:42:17;;;;;;;34.08;14.32;;;;;;;8.68;74.83;94763.25;5065600;28;20258;-79
2022/10/16 06:44:43;;;;;;;29.98;13.18;;;;;;;8.76;74.29;94767.97;5065436;28;20032;-79
2022/10/16 06:47:08;;;;;;;25.00;12.52;;;;;;;8.83;74.05;94767.63;5065203;28;20029;-79
2022/10/16 06:49:34;;;;;;;29.23;12.52;;;;;;;8.92;73.86;94765.97;5064947;28;20095;-79
2022/10/16 06:51:59;;;;;;;22.75;12.27;;;;;;;9.02;73.74;94765.09;5065012;28;20028;-79
2022/10/16 06:54:24;;;;;;;18.83;11.23;;;;;;;9.17;73.78;94777.44;5065025;28;20238;-79
2022/10/16 06:56:51;;;;;;;20.90;10.65;;;;;;;9.29;73.21;94780.50;5064992;28;20073;-79
2022/10/16 06:59:16;;;;;;;16.98;10.07;;;;;;;9.38;73.27;94781.47;5064988;28;20243;-79
2022/10/16 07:01:42;;;;;;;19.25;7.22;;;;;;;9.51;71.71;94782.66;5064894;28;20020;-79
2022/10/16 07:04:07;;;;;;;22.23;7.55;;;;;;;9.65;70.75;94785.44;5065111;28;20044;-79
2022/10/16 07:06:33;;;;;;;12.48;6.55;;;;;;;9.77;70.13;94791.16;5065140;28;20029;-79
2022/10/16 07:09:02;;;;;;;9.57;6.30;;;;;;;9.90;69.62;94796.88;5064677;28;20029;-79
2022/10/16 07:11:27;;;;;;;14.52;7.28;;;;;;;10.02;69.08;94794.59;5064753;28;20028;-79
2022/10/16 07:13:53;;;;;;;18.38;6.80;;;;;;;10.12;68.56;94791.00;5064527;28;20025;-79
2022/10/16 07:16:21;;;;;;;11.18;6.00;;;;;;;10.19;68.37;94783.44;5064607;28;20120;-79
2022/10/16 07:18:48;;;;;;;12.30;6.05;;;;;;;10.25;68.26;94788.38;5064729;28;20024;-79
2022/10/16 07:21:17;;;;;;;12.57;6.95;;;;;;;10.30;67.67;94790.25;5064481;28;20028;-79
2022/10/16 07:23:43;;;;;;;11.52;5.60;;;;;;;10.36;67.37;94791.75;5064416;28;20040;-79
2022/10/16 07:26:09;;;;;;;12.88;6.57;;;;;;;10.45;67.08;94789.22;5064640;28;20090;-79
2022/10/16 07:28:35;;;;;;;14.20;6.57;;;;;;;10.50;66.69;94801.69;5064121;28;20040;-79
2022/10/16 07:31:06;;;;;;;11.10;6.18;;;;;;;10.57;66.64;94794.13;5064270;28;20020;-79
2022/10/16 07:33:33;;;;;;;20.60;11.32;;;;;;;10.64;66.22;94799.88;5064250;28;20025;-79
2022/10/16 07:35:58;;;;;;;12.15;6.80;;;;;;;10.76;65.53;94800.22;5064180;28;20021;-79
2022/10/16 07:38:24;;;;;;;14.77;6.03;;;;;;;10.88;65.10;94802.44;5064115;28;20059;-79
2022/10/16 07:40:57;;;;;;;14.73;6.05;;;;;;;11.00;65.38;94791.31;5064412;28;20079;-79
2022/10/16 07:43:23;;;;;;;9.98;5.93;;;;;;;11.10;64.79;94798.34;5064207;28;20130;-79
2022/10/16 07:45:50;;;;;;;9.65;5.95;;;;;;;11.20;63.81;94804.28;5064130;28;20036;-79
2022/10/16 07:48:16;;;;;;;11.27;5.57;;;;;;;11.28;63.59;94802.84;5063969;28;20029;-79
2022/10/16 07:50:42;;;;;;;9.50;5.30;;;;;;;11.38;63.34;94799.19;5064255;28;20031;-79
2022/10/16 07:53:08;;;;;;;15.80;6.03;;;;;;;11.48;62.97;94803.53;5063883;28;20028;-79
2022/10/16 07:55:33;;;;;;;17.60;6.25;;;;;;;11.55;62.89;94803.97;5063801;28;20047;-79
2022/10/16 07:57:59;;;;;;;17.20;6.47;;;;;;;11.65;62.75;94809.09;5063536;28;20037;-79
2022/10/16 08:00:24;;;;;;;11.30;6.65;;;;;;;11.69;62.38;94815.44;5063552;28;20029;-79
2022/10/16 08:02:49;;;;;;;14.30;6.68;;;;;;;11.79;62.33;94809.13;5063729;28;20039;-79
2022/10/16 08:05:15;;;;;;;13.40;6.07;;;;;;;11.88;61.71;94806.53;5063935;28;20218;-79
2022/10/16 08:07:40;;;;;;;13.57;6.88;;;;;;;11.93;61.54;94807.25;5063668;28;20033;-79
2022/10/16 08:10:06;;;;;;;12.48;6.07;;;;;;;12.01;61.04;94811.13;5063635;28;20020;-79
2022/10/16 08:12:31;;;;;;;20.85;6.80;;;;;;;12.13;60.51;94811.41;5063616;28;20035;-79
2022/10/16 08:14:57;;;;;;;19.02;7.47;;;;;;;12.18;60.08;94808.59;5063537;28;20096;-79
2022/10/16 08:17:22;;;;;;;15.75;6.43;;;;;;;12.28;60.17;94804.16;5063567;28;20043;-79
2022/10/16 08:19:48;;;;;;;12.68;6.20;;;;;;;12.34;60.25;94809.06;5063253;28;20013;-79
2022/10/16 08:22:14;;;;;;;14.98;6.80;;;;;;;12.39;59.82;94808.16;5063253;28;20044;-79
2022/10/16 08:24:40;;;;;;;13.27;7.18;;;;;;;12.44;59.52;94813.41;5063410;28;20090;-79
2022/10/16 08:27:06;;;;;;;12.82;6.55;;;;;;;12.51;59.44;94819.13;5063282;28;20369;-79
2022/10/16 08:29:32;;;;;;;12.68;6.55;;;;;;;12.61;58.67;94808.19;5063223;28;20083;-79
2022/10/16 08:31:58;;;;;;;14.43;6.13;;;;;;;12.69;57.77;94803.25;5063299;28;20028;-79
2022/10/16 08:34:23;;;;;;;13.27;6.60;;;;;;;12.77;57.57;94803.31;5063114;28;20025;-79
2022/10/16 08:36:48;;;;;;;22.45;6.47;;;;;;;12.87;57.58;94796.91;5063340;28;20027;-79
2022/10/16 08:39:15;;;;;;;17.45;6.00;;;;;;;12.92;57.24;94802.13;5063213;28;20364;-79
2022/10/16 08:42:08;;;;;;;15.05;6.57;;;;;;;12.99;56.75;94807.88;5062473;28;20358;-79
2022/10/16 08:44:52;;;;;;;12.35;5.88;;;;;;;13.07;56.40;94800.19;5062795;28;20025;-80
2022/10/16 08:47:21;;;;;;;18.80;6.03;;;;;;;13.15;55.74;94796.81;5062879;28;20051;-79
2022/10/16 08:49:57;;;;;;;8.25;5.30;;;;;;;13.23;55.32;94806.78;5062874;28;20299;-79
2022/10/16 08:52:28;;;;;;;9.82;4.90;;;;;;;13.35;54.97;94807.03;5062824;28;20062;-79
2022/10/16 08:54:55;;;;;;;15.10;5.50;;;;;;;13.34;54.32;94802.75;5062609;28;20031;-79
2022/10/16 08:57:22;;;;;;;15.77;5.53;;;;;;;13.39;53.75;94805.31;5062670;28;20104;-79
2022/10/16 08:59:48;;;;;;;13.75;4.93;;;;;;;13.50;53.37;94805.03;5062739;28;20021;-79
2022/10/16 09:02:26;;;;;;;8.13;4.15;;;;;;;13.55;52.68;94808.34;5062613;28;20226;-79
2022/10/16 09:04:51;;;;;;;15.07;4.40;;;;;;;13.69;52.10;94813.63;5062834;28;20045;-79
2022/10/16 09:07:43;;;;;;;7.07;3.67;;;;;;;13.82;49.26;94818.09;5062768;28;20310;-79
2022/10/16 09:10:16;;;;;;;7.85;3.58;;;;;;;13.88;49.82;94812.59;5062721;28;20096;-79
2022/10/16 09:13:07;;;;;;;9.93;4.40;;;;;;;13.93;50.11;94799.84;5062657;28;20043;-79
2022/10/16 09:15:50;;;;;;;8.68;3.55;;;;;;;14.03;49.38;94801.44;5062399;28;20303;-79
2022/10/16 09:18:20;;;;;;;7.32;3.80;;;;;;;14.12;48.60;94804.16;5062718;28;20021;-79
2022/10/16 09:20:48;;;;;;;9.90;3.42;;;;;;;14.20;48.13;94801.47;5062473;28;20104;-79
2022/10/16 09:23:27;;;;;;;7.65;4.22;;;;;;;14.28;48.37;94796.47;5061105;28;20036;-79
2022/10/16 09:25:55;;;;;;;9.27;3.22;;;;;;;14.35;48.11;94794.09;5062551;28;20223;-79
2022/10/16 09:28:20;;;;;;;7.28;3.70;;;;;;;14.41;47.00;94801.69;5062458;28;20095;-79
2022/10/16 09:30:50;;;;;;;6.35;3.35;;;;;;;14.51;46.18;94803.28;5062490;28;20070;-79
2022/10/16 09:33:18;;;;;;;7.35;3.15;;;;;;;14.52;45.18;94801.38;5062362;28;20028;-79
2022/10/16 09:35:48;;;;;;;6.40;3.28;;;;;;;14.61;45.67;94804.88;5062227;28;20048;-79
2022/10/16 09:38:30;;;;;;;10.43;3.38;;;;;;;14.71;45.04;94806.47;5062208;28;20330;-79
2022/10/16 09:40:57;;;;;;;;;;;;;;;14.73;43.86;94802.34;5062769;28;20032;-79
2022/10/16 09:43:47;;;;;;;7.30;2.58;;;;;;;14.67;43.24;94808.19;5062259;28;19920;-79
2022/10/16 09:46:31;;;;;;;5.22;3.17;;;;;;;14.75;43.43;94794.00;5062301;28;20204;-79
2022/10/16 09:49:20;;;;;;;6.20;3.05;;;;;;;14.77;43.70;94797.16;5062313;28;20071;-79
2022/10/16 09:51:47;;;;;;;7.57;3.67;;;;;;;14.84;44.82;94800.16;5062426;28;20384;-79
2022/10/16 09:54:15;;;;;;;8.50;4.35;;;;;;;14.96;43.99;94792.25;5066368;28;20016;-79
2022/10/16 09:56:41;;;;;;;7.70;3.08;;;;;;;15.05;43.46;94793.00;5066277;28;20016;-79
2022/10/16 09:59:17;;;;;;;5.45;2.97;;;;;;;15.17;42.29;94784.31;5066197;28;20067;-79
2022/10/16 10:01:50;;;;;;;7.50;2.83;;;;;;;15.09;42.81;94792.41;5066478;28;20025;-79
2022/10/16 10:04:16;;;;;;;13.25;4.78;;;;;;;15.08;43.69;94786.22;5066087;28;20048;-79
2022/10/16 10:07:01;;;;;;;5.25;3.00;;;;;;;15.20;44.23;94788.25;5066274;28;20241;-79
2022/10/16 10:09:39;;;;;;;6.20;3.55;;;;;;;15.31;43.30;94784.13;5065832;28;20207;-79
2022/10/16 10:12:16;;;;;;;9.77;3.30;;;;;;;15.41;43.66;94777.63;5065966;28;20044;-79
2022/10/16 10:14:50;;;;;;;6.28;2.85;;;;;;;15.50;43.27;94780.28;5066096;28;20032;-79
2022/10/16 10:17:17;;;;;;;7.13;2.58;;;;;;;15.51;41.93;94774.59;5065823;28;20078;-79
2022/10/16 10:19:57;;;;;;;6.43;3.47;;;;;;;15.58;42.02;94779.47;5065990;28;20092;-79
2022/10/16 10:22:40;;;;;;;9.23;2.85;;;;;;;15.67;42.23;94785.56;5064543;28;20025;-79
2022/10/16 10:25:09;;;;;;;7.28;3.10;;;;;;;15.74;41.73;94780.53;5065381;28;20041;-79
2022/10/16 10:28:11;;;;;;;6.95;3.00;;;;;;;15.73;41.08;94780.84;5065461;28;20070;-79
2022/10/16 10:31:04;;;;;;;7.68;3.35;;;;;;;15.78;41.77;94773.41;5065676;28;20059;-79
2022/10/16 10:33:45;;;;;;;5.68;2.80;;;;;;;15.89;42.08;94773.81;5065549;28;20017;-79
2022/10/16 10:36:29;;;;;;;6.53;2.60;;;;;;;16.01;41.12;94773.13;5065509;28;20025;-79
2022/10/16 10:39:08;;;;;;;7.30;2.88;;;;;;;16.08;40.04;94767.22;5065309;28;20029;-79
2022/10/16 10:41:49;;;;;;;6.88;3.10;;;;;;;16.05;38.91;94769.44;5065437;28;20033;-79
2022/10/16 10:44:39;;;;;;;5.30;2.75;;;;;;;16.12;39.52;94755.50;5065457;28;21388;-79
2022/10/16 10:47:14;;;;;;;8.10;2.70;;;;;;;16.14;40.27;94763.25;5065287;28;20032;-79
2022/10/16 10:50:06;;;;;;;8.88;3.85;;;;;;;16.27;40.00;94756.06;5065598;28;20036;-79
2022/10/16 10:52:56;;;;;;;12.95;2.88;;;;;;;16.35;39.90;94764.06;5065037;28;20311;-79
2022/10/16 10:55:47;;;;;;;7.20;3.50;;;;;;;16.49;39.88;94753.03;5065228;28;20283;-79
2022/10/16 10:58:18;;;;;;;11.70;3.90;;;;;;;16.62;39.84;94749.28;5065327;28;20059;-79
2022/10/16 11:01:12;;;;;;;5.82;3.15;;;;;;;16.74;38.68;94745.09;5065188;28;20027;-79
2022/10/16 11:03:57;;;;;;;9.27;3.20;;;;;;;16.68;38.23;94741.81;5064403;28;20222;-80
2022/10/16 11:06:26;;;;;;;5.45;2.75;;;;;;;16.80;37.55;94738.38;5064914;28;20334;-79
2022/10/16 11:09:31;;;;;;;5.82;2.60;;;;;;;16.90;37.21;94731.84;5064798;28;20028;-79
2022/10/16 11:12:05;;;;;;;4.43;2.78;;;;;;;17.01;37.44;94738.38;5064918;28;20028;-79
2022/10/16 11:14:36;;;;;;;6.47;2.38;;;;;;;17.04;37.04;94733.09;5064736;28;20048;-80
2022/10/16 11:17:11;;;;;;;14.13;4.28;;;;;;;17.13;37.45;94732.22;5064895;28;20024;-79
2022/10/16 11:19:45;;;;;;;8.85;4.00;;;;;;;17.26;36.06;94736.53;5064742;28;20028;-79
2022/10/16 11:22:20;;;;;;;6.85;2.92;;;;;;;17.31;34.75;94730.91;5064669;28;20048;-80
2022/10/16 11:25:12;;;;;;;5.88;2.80;;;;;;;17.40;34.62;94733.50;5064444;28;20044;-79
2022/10/16 11:27:56;;;;;;;3.88;2.17;;;;;;;17.54;33.39;94727.81;5064673;28;20040;-80
2022/10/16 11:30:25;;;;;;;5.30;2.08;;;;;;;17.66;33.14;94717.03;5064508;28;20021;-79
2022/10/16 11:33:08;;;;;;;7.43;2.65;;;;;;;17.74;33.16;94732.31;5064561;28;20238;-79
2022/10/16 11:35:43;;;;;;;4.20;2.22;;;;;;;17.84;32.99;94723.00;5064204;28;20083;-79
2022/10/16 11:38:29;;;;;;;10.32;2.58;;;;;;;17.96;31.72;94719.53;5064674;28;20058;-79
2022/10/16 11:41:00;;;;;;;5.60;2.10;;;;;;;18.01;31.76;94724.69;5064395;28;20208;-79
2022/10/16 11:43:32;;;;;;;5.70;2.20;;;;;;;18.13;32.21;94721.97;5064583;28;20017;-79
2022/10/16 11:46:04;;;;;;;6.57;2.25;;;;;;;18.22;31.19;94725.34;5064146;28;20067;-79